Terminal Aerodrome Forecast
Issued by NWS Jackson, KY

Home | Current Version | Previous Version | Text Only | Print | Product List | Glossary On
Versions: 1 2 3 4 5 6 7 8 9 10 11 12 13 14 15
532
FTUS43 KJKL 240300 AAB
TAFJKL
TAF AMD
KJKL 240300Z 2403/2424 VRB03KT P6SM BKN015
     FM240600 VRB03KT 3SM BR BKN010 OVC025
     FM241100 VRB03KT 1/2SM FG BKN008
     FM241300 VRB03KT P6SM FEW060=

USA.gov is the U.S. government's official web portal to all federal, state and local government web resources and services.